Time;durP1;ratioP1;P1;durP2;ratioP2;P2;SDS_P1;SDS_P2;PMS_P1;PMS_P2;Temp;Humidity;BMP_temperature;BMP_pressure;BME280_temperature;BME280_humidity;BME280_pressure;Samples;Min_cycle;Max_cycle;Signal;HPM_P1;HPM_P2
2023/06/09 00:01:22;;;;;;;45.60;7.03;;;;;;;23.48;60.26;99308.00;7316478;19;128726;-38
2023/06/09 00:03:50;;;;;;;54.13;7.38;;;;;;;23.46;59.38;99307.31;7316022;19;130352;-38
2023/06/09 00:06:22;;;;;;;33.05;7.32;;;;;;;23.39;60.89;99295.00;7318010;19;129707;-38
2023/06/09 00:08:51;;;;;;;48.38;7.72;;;;;;;23.48;60.43;99313.25;7316040;19;129895;-38
2023/06/09 00:11:16;;;;;;;35.40;7.30;;;;;;;23.49;60.32;99298.31;7316864;19;129177;-38
2023/06/09 00:13:42;;;;;;;77.77;9.40;;;;;;;23.47;59.84;99295.84;7315715;19;129166;-38
2023/06/09 00:16:07;;;;;;;32.00;7.60;;;;;;;23.44;60.18;99293.53;7318223;19;129564;-38
2023/06/09 00:18:34;;;;;;;50.87;8.13;;;;;;;23.48;60.09;99292.25;7315156;19;129591;-39
2023/06/09 00:21:00;;;;;;;34.22;7.18;;;;;;;23.47;60.39;99285.34;7315742;19;128951;-38
2023/06/09 00:23:28;;;;;;;58.20;8.00;;;;;;;23.48;59.77;99291.41;7316243;19;128827;-38
2023/06/09 00:25:54;;;;;;;22.58;7.05;;;;;;;23.48;60.18;99280.94;7315590;19;129740;-38
2023/06/09 00:28:19;;;;;;;44.67;7.70;;;;;;;23.47;60.28;99285.34;7314828;19;130323;-36
2023/06/09 00:30:45;;;;;;;35.85;7.60;;;;;;;23.50;60.57;99290.31;7314206;19;129484;-38
2023/06/09 00:33:10;;;;;;;65.78;9.52;;;;;;;23.46;60.29;99286.34;7313622;19;128856;-38
2023/06/09 00:35:35;;;;;;;50.07;8.40;;;;;;;23.49;60.30;99293.88;7314519;19;129136;-39
2023/06/09 00:38:01;;;;;;;36.00;7.23;;;;;;;23.46;59.91;99288.97;7315657;19;129761;-38
2023/06/09 00:40:26;;;;;;;73.93;10.50;;;;;;;23.48;59.60;99287.00;7315243;19;128950;-39
2023/06/09 00:42:52;;;;;;;115.85;11.32;;;;;;;23.49;59.98;99287.81;7315726;19;129536;-39
2023/06/09 00:45:17;;;;;;;32.55;7.32;;;;;;;23.49;59.56;99293.88;7315364;19;129450;-39
2023/06/09 00:47:43;;;;;;;37.90;7.35;;;;;;;23.49;59.87;99288.63;7316727;19;129650;-38
2023/06/09 00:50:11;;;;;;;56.47;8.57;;;;;;;23.49;59.75;99287.81;7312431;19;130269;-38
2023/06/09 00:52:37;;;;;;;31.88;7.60;;;;;;;23.49;60.33;99287.81;7316608;19;128737;-38
2023/06/09 00:55:03;;;;;;;40.30;8.07;;;;;;;23.48;59.85;99292.25;7312475;19;130138;-38
2023/06/09 00:57:29;;;;;;;50.80;8.83;;;;;;;23.48;59.64;99281.75;7315604;19;129309;-39
2023/06/09 00:59:56;;;;;;;42.53;7.60;;;;;;;23.47;60.28;99274.84;7314155;19;129480;-38
2023/06/09 01:02:21;;;;;;;36.33;7.25;;;;;;;23.45;59.62;99274.22;7316612;19;129370;-38
2023/06/09 01:04:49;;;;;;;40.53;8.98;;;;;;;23.49;59.72;99278.13;7312985;19;129722;-39
2023/06/09 01:07:28;;;;;;;35.00;8.05;;;;;;;23.50;60.29;99284.22;7315806;19;129290;-38
2023/06/09 01:10:22;;;;;;;28.05;7.28;;;;;;;23.50;60.61;99285.06;7312993;19;129101;-38
2023/06/09 01:13:20;;;;;;;37.00;7.40;;;;;;;23.51;60.40;99284.06;7316411;19;129361;-38
2023/06/09 01:15:53;;;;;;;44.40;7.90;;;;;;;23.49;59.69;99282.56;7310941;19;129838;-38
2023/06/09 01:18:20;;;;;;;46.17;8.43;;;;;;;23.50;59.95;99278.97;7315104;19;129559;-38
2023/06/09 01:21:08;;;;;;;53.33;8.23;;;;;;;23.50;60.03;99289.47;7312972;19;129103;-39
2023/06/09 01:23:44;;;;;;;63.78;8.77;;;;;;;23.48;58.76;99289.63;7315920;19;129188;-39
2023/06/09 01:26:10;;;;;;;57.72;8.23;;;;;;;23.45;60.25;99287.34;7313477;19;129040;-38
2023/06/09 01:28:38;;;;;;;33.10;7.60;;;;;;;23.49;59.54;99293.06;7314773;19;129380;-39
2023/06/09 01:31:04;;;;;;;41.35;7.63;;;;;;;23.47;59.23;99280.09;7311392;19;129184;-38
2023/06/09 01:33:30;;;;;;;36.42;7.13;;;;;;;23.47;59.35;99289.78;7315327;19;129088;-38
2023/06/09 01:35:57;;;;;;;54.35;7.50;;;;;;;23.50;59.56;99285.06;7313076;19;129803;-38
2023/06/09 01:38:24;;;;;;;38.08;7.35;;;;;;;23.48;59.24;99291.41;7315477;19;129885;-39
2023/06/09 01:40:50;;;;;;;33.05;6.57;;;;;;;23.47;60.36;99290.59;7312926;19;130964;-38
2023/06/09 01:43:16;;;;;;;40.30;7.50;;;;;;;23.48;59.74;99287.00;7315318;19;128746;-40
2023/06/09 01:45:41;;;;;;;43.43;7.57;;;;;;;23.49;59.20;99283.38;7309344;19;129037;-39
2023/06/09 01:48:29;;;;;;;21.17;5.77;;;;;;;23.48;60.30;99273.06;7316042;19;129194;-37
2023/06/09 01:50:59;;;;;;;;;;;;;;;23.55;60.00;99280.13;7311217;19;129296;-39
2023/06/09 01:53:28;;;;;;;36.15;6.65;;;;;;;23.49;59.34;99264.19;7314845;19;129596;-39
2023/06/09 01:56:11;;;;;;;62.25;8.07;;;;;;;23.47;60.19;99274.84;7309886;19;129448;-38
2023/06/09 01:58:43;;;;;;;36.60;6.38;;;;;;;23.43;59.81;99265.66;7315248;19;130155;-38
2023/06/09 02:01:12;;;;;;;51.53;7.28;;;;;;;23.47;59.61;99274.03;7311646;19;129034;-36
2023/06/09 02:03:40;;;;;;;35.13;6.68;;;;;;;23.46;59.15;99267.97;7315371;19;129205;-38
2023/06/09 02:06:07;;;;;;;62.35;8.15;;;;;;;23.47;59.94;99268.81;7312317;19;129078;-39
2023/06/09 02:08:33;;;;;;;37.97;6.03;;;;;;;23.45;59.82;99271.59;7315108;19;129677;-37
2023/06/09 02:10:59;;;;;;;95.80;9.40;;;;;;;23.46;59.36;99281.09;7308776;19;129003;-38
2023/06/09 02:13:24;;;;;;;43.83;6.57;;;;;;;23.46;60.03;99281.09;7315538;19;128865;-38
2023/06/09 02:15:49;;;;;;;37.42;6.20;;;;;;;23.47;59.42;99280.09;7311244;19;129543;-39
2023/06/09 02:18:20;;;;;;;29.90;6.07;;;;;;;23.48;59.87;99271.25;7311346;19;131113;-39
2023/06/09 02:20:47;;;;;;;63.20;7.75;;;;;;;23.48;59.17;99278.31;7312999;19;128957;-39
2023/06/09 02:23:12;;;;;;;43.15;5.93;;;;;;;23.46;59.28;99272.38;7312511;19;128961;-38
2023/06/09 02:25:37;;;;;;;34.07;6.13;;;;;;;23.47;59.93;99279.28;7311972;19;129058;-38
2023/06/09 02:28:04;;;;;;;48.07;6.90;;;;;;;23.44;58.93;99280.41;7311381;19;131146;-38
2023/06/09 02:30:31;;;;;;;76.18;8.05;;;;;;;23.37;59.38;99274.16;7310865;19;129159;-39
2023/06/09 02:33:00;;;;;;;33.80;6.00;;;;;;;23.43;59.72;99277.97;7312403;19;128913;-38
2023/06/09 02:35:26;;;;;;;38.95;6.38;;;;;;;23.42;59.21;99277.13;7312250;19;130774;-39
2023/06/09 02:37:54;;;;;;;30.83;5.53;;;;;;;23.43;59.44;99284.03;7310301;19;129471;-39
2023/06/09 02:40:20;;;;;;;60.25;7.50;;;;;;;23.46;59.62;99281.09;7312661;19;130150;-38
2023/06/09 02:42:47;;;;;;;41.73;6.03;;;;;;;23.42;59.83;99276.31;7312360;19;129166;-38
2023/06/09 02:45:12;;;;;;;36.55;6.20;;;;;;;23.45;59.96;99286.50;7312315;19;129655;-38
2023/06/09 02:47:38;;;;;;;35.55;6.13;;;;;;;23.44;58.68;99280.41;7311741;19;131045;-39
2023/06/09 02:50:05;;;;;;;66.88;7.07;;;;;;;23.44;59.35;99280.41;7312010;19;129298;-38
2023/06/09 02:52:31;;;;;;;71.28;7.85;;;;;;;23.44;59.14;99293.53;7311672;19;128827;-39
2023/06/09 02:54:57;;;;;;;37.20;5.60;;;;;;;23.42;58.36;99285.00;7310885;19;130093;-39
2023/06/09 02:57:23;;;;;;;33.45;6.28;;;;;;;23.45;59.67;99281.25;7312962;19;129961;-39
2023/06/09 02:59:48;;;;;;;66.27;7.33;;;;;;;23.43;59.71;99278.78;7310708;19;129099;-39
2023/06/09 03:02:15;;;;;;;47.80;6.45;;;;;;;23.44;58.48;99284.84;7310553;19;128858;-39
2023/06/09 03:04:42;;;;;;;43.42;6.25;;;;;;;23.35;59.23;99272.69;7311218;19;129314;-38
2023/06/09 03:07:13;;;;;;;;;;;;;;;23.47;59.42;99284.53;7310349;19;130591;-38
2023/06/09 03:09:39;;;;;;;54.15;6.28;;;;;;;23.45;59.30;99287.34;7312448;19;130149;-38
2023/06/09 03:12:05;;;;;;;39.43;6.17;;;;;;;23.43;58.99;99280.59;7309887;19;128887;-39
2023/06/09 03:14:31;;;;;;;31.60;5.65;;;;;;;23.43;58.47;99281.41;7310914;19;128972;-38
2023/06/09 03:16:58;;;;;;;159.23;11.80;;;;;;;23.43;59.24;99280.59;7309942;19;129760;-39
2023/06/09 03:19:24;;;;;;;61.75;7.47;;;;;;;23.42;58.86;99287.63;7311822;19;129348;-38
2023/06/09 03:21:49;;;;;;;36.27;4.97;;;;;;;23.39;58.69;99287.16;7312148;19;128982;-39
2023/06/09 03:24:15;;;;;;;35.53;5.32;;;;;;;23.40;59.18;99286.97;7309482;19;129055;-38
2023/06/09 03:26:40;;;;;;;42.43;5.97;;;;;;;23.34;58.90;99274.47;7312343;19;129305;-38
2023/06/09 03:29:05;;;;;;;54.60;6.00;;;;;;;23.41;59.30;99293.88;7308338;19;128942;-39
2023/06/09 03:31:31;;;;;;;32.47;5.50;;;;;;;23.43;58.97;99291.91;7311653;19;129050;-38
2023/06/09 03:33:56;;;;;;;33.85;5.07;;;;;;;23.42;58.91;99297.31;7309135;19;129413;-38
2023/06/09 03:36:23;;;;;;;61.63;6.27;;;;;;;23.33;59.20;99272.84;7311312;19;129255;-39
2023/06/09 03:38:48;;;;;;;;;;;;;;;23.46;59.77;99294.22;7310041;19;129498;-37
2023/06/09 03:41:14;;;;;;;36.53;5.40;;;;;;;23.45;59.52;99291.75;7311440;19;128897;-39
2023/06/09 03:43:39;;;;;;;84.13;7.67;;;;;;;23.30;59.00;99278.41;7308424;19;129719;-39
2023/06/09 03:46:05;;;;;;;32.55;5.25;;;;;;;23.42;59.45;99303.38;7311369;19;129637;-38
2023/06/09 03:48:30;;;;;;;59.60;6.30;;;;;;;23.42;58.73;99308.59;7305933;19;128972;-39
2023/06/09 03:50:55;;;;;;;32.92;5.32;;;;;;;23.43;58.91;99306.81;7308177;19;129907;-38
2023/06/09 03:53:21;;;;;;;65.97;7.40;;;;;;;23.43;59.65;99315.53;7307679;19;129837;-38
2023/06/09 03:55:46;;;;;;;40.87;5.53;;;;;;;23.43;58.95;99320.78;7307819;19;129357;-38
2023/06/09 03:58:12;;;;;;;61.23;6.67;;;;;;;23.44;58.79;99317.16;7310617;19;129002;-40
2023/06/09 04:00:38;;;;;;;45.45;6.28;;;;;;;23.44;58.87;99313.69;7306799;19;129757;-38
2023/06/09 04:03:04;;;;;;;43.75;5.97;;;;;;;23.44;59.18;99319.78;7308617;19;129216;-38
2023/06/09 04:05:29;;;;;;;51.90;6.32;;;;;;;23.42;58.70;99316.47;7305535;19;129689;-39
2023/06/09 04:07:54;;;;;;;49.10;5.85;;;;;;;23.29;58.18;99292.50;7312547;19;129721;-37
2023/06/09 04:10:20;;;;;;;41.53;6.10;;;;;;;23.37;58.71;99310.88;7314224;19;129618;-37
2023/06/09 04:12:45;;;;;;;40.67;5.93;;;;;;;23.38;58.76;99307.31;7317101;19;130457;-38
2023/06/09 04:15:10;;;;;;;94.38;8.50;;;;;;;23.42;59.29;99319.09;7307842;19;129667;-38
2023/06/09 04:17:37;;;;;;;51.77;6.10;;;;;;;23.42;59.13;99319.09;7316239;19;129145;-38
2023/06/09 04:20:10;;;;;;;27.10;6.07;;;;;;;23.40;58.76;99321.09;7312441;19;129132;-38
2023/06/09 04:22:35;;;;;;;33.03;5.80;;;;;;;23.30;58.66;99302.03;7315799;19;130311;-38
2023/06/09 04:25:04;;;;;;;43.97;5.72;;;;;;;23.41;58.29;99317.47;7312387;19;129705;-37
2023/06/09 04:27:30;;;;;;;37.20;5.47;;;;;;;23.41;59.32;99321.88;7316263;19;129125;-38
2023/06/09 04:29:57;;;;;;;21.80;5.03;;;;;;;23.40;59.06;99326.34;7312612;19;128872;-39
2023/06/09 04:32:23;;;;;;;43.90;5.90;;;;;;;23.40;59.10;99320.25;7315130;19;130405;-38
2023/06/09 04:34:49;;;;;;;38.42;5.38;;;;;;;23.35;59.25;99312.88;7312686;19;129344;-38
2023/06/09 04:37:14;;;;;;;71.67;7.27;;;;;;;23.27;59.33;99302.31;7316380;19;128858;-39
2023/06/09 04:39:45;;;;;;;40.70;6.43;;;;;;;23.37;59.19;99313.50;7312667;19;132085;-39
2023/06/09 04:42:11;;;;;;;45.75;6.57;;;;;;;23.39;59.25;99319.44;7314842;19;129016;-38
2023/06/09 04:44:36;;;;;;;58.23;6.90;;;;;;;23.38;59.03;99317.78;7315270;19;129111;-38
2023/06/09 04:47:02;;;;;;;43.55;6.05;;;;;;;23.32;59.37;99305.28;7318290;19;129559;-38
2023/06/09 04:49:30;;;;;;;36.47;5.90;;;;;;;23.37;59.22;99318.75;7313689;19;129692;-39
2023/06/09 04:51:57;;;;;;;26.88;5.95;;;;;;;23.40;58.61;99326.34;7314912;19;130284;-38
2023/06/09 04:54:25;;;;;;;;;;;;;;;23.44;58.96;99322.41;7310639;19;129641;-38
2023/06/09 04:56:57;;;;;;;41.25;6.53;;;;;;;23.42;59.11;99326.97;7316735;19;128940;-39
2023/06/09 04:59:23;;;;;;;71.05;8.25;;;;;;;23.40;58.97;99328.97;7310701;19;130238;-39
2023/06/09 05:01:51;;;;;;;36.78;6.45;;;;;;;23.36;58.89;99330.25;7314098;19;129033;-39
2023/06/09 05:04:17;;;;;;;42.53;6.63;;;;;;;23.37;58.77;99334.50;7314995;19;129330;-38
2023/06/09 05:06:42;;;;;;;46.50;6.60;;;;;;;23.35;59.21;99328.59;7312612;19;129086;-38
2023/06/09 05:09:08;;;;;;;43.63;6.57;;;;;;;23.36;59.66;99338.09;7315317;19;129964;-39
2023/06/09 05:11:34;;;;;;;26.13;5.68;;;;;;;23.31;58.71;99337.75;7314729;19;129385;-39
2023/06/09 05:14:00;;;;;;;46.88;6.97;;;;;;;23.36;58.33;99332.03;7314424;19;130273;-38
2023/06/09 05:16:27;;;;;;;47.10;6.83;;;;;;;23.33;59.16;99335.81;7316430;19;129048;-39
2023/06/09 05:18:52;;;;;;;46.00;6.97;;;;;;;23.32;59.16;99336.75;7312839;19;129096;-37
2023/06/09 05:21:18;;;;;;;29.37;6.27;;;;;;;23.30;58.77;99338.75;7312312;19;129375;-39
2023/06/09 05:23:43;;;;;;;47.80;6.97;;;;;;;23.31;59.49;99343.00;7314649;19;129193;-39
2023/06/09 05:26:09;;;;;;;45.13;7.18;;;;;;;23.32;59.87;99342.00;7315246;19;128940;-39
2023/06/09 05:28:34;;;;;;;94.32;9.07;;;;;;;23.35;58.95;99340.91;7307511;19;129923;-38
2023/06/09 05:31:01;;;;;;;35.67;6.30;;;;;;;23.23;59.15;99320.16;7309864;19;130049;-38
2023/06/09 05:33:27;;;;;;;57.58;7.30;;;;;;;23.36;59.20;99335.50;7312641;19;131480;-38
2023/06/09 05:35:52;;;;;;;45.15;7.35;;;;;;;23.36;58.87;99334.66;7313353;19;129072;-39
2023/06/09 05:38:18;;;;;;;72.05;7.30;;;;;;;23.37;59.55;99342.38;7314735;19;129353;-38
2023/06/09 05:40:44;;;;;;;37.63;6.10;;;;;;;23.34;59.31;99345.31;7313574;19;130157;-37
2023/06/09 05:43:09;;;;;;;58.55;7.63;;;;;;;23.35;59.44;99349.59;7314513;19;129186;-38
2023/06/09 05:45:34;;;;;;;50.67;7.03;;;;;;;23.36;59.81;99351.22;7312441;19;128919;-38
2023/06/09 05:48:00;;;;;;;54.90;7.00;;;;;;;23.31;58.97;99343.00;7314624;19;129849;-38
2023/06/09 05:50:25;;;;;;;52.33;7.30;;;;;;;23.36;59.78;99342.53;7312962;19;129665;-38
2023/06/09 05:52:50;;;;;;;38.95;6.30;;;;;;;23.36;59.81;99348.59;7313876;19;131012;-36
2023/06/09 05:55:16;;;;;;;32.97;6.13;;;;;;;23.35;59.06;99343.50;7313890;19;128822;-38
2023/06/09 05:57:45;;;;;;;37.63;7.07;;;;;;;23.33;59.51;99348.09;7314059;19;129517;-38
2023/06/09 06:00:11;;;;;;;16.55;5.80;;;;;;;23.32;59.42;99344.63;7313799;19;129223;-38
2023/06/09 06:02:38;;;;;;;61.53;7.32;;;;;;;23.33;58.97;99345.47;7312139;19;129345;-38
2023/06/09 06:05:05;;;;;;;34.63;6.43;;;;;;;23.31;59.48;99343.00;7313457;19;128730;-39
2023/06/09 06:07:31;;;;;;;29.58;6.60;;;;;;;23.31;59.24;99336.94;7314035;19;128938;-38
2023/06/09 06:09:56;;;;;;;36.07;6.60;;;;;;;23.31;59.59;99348.25;7313353;19;129189;-38
2023/06/09 06:12:21;;;;;;;51.47;6.77;;;;;;;23.32;58.99;99354.31;7311683;19;129372;-38
2023/06/09 06:14:47;;;;;;;34.63;6.28;;;;;;;23.31;59.34;99356.13;7313974;19;128797;-38
2023/06/09 06:17:12;;;;;;;45.95;6.82;;;;;;;23.31;59.67;99350.03;7313580;19;129941;-37
2023/06/09 06:19:37;;;;;;;34.43;6.40;;;;;;;23.33;59.70;99356.78;7314075;19;129538;-38
2023/06/09 06:22:03;;;;;;;67.90;8.03;;;;;;;23.33;59.67;99351.53;7312638;19;131016;-39
2023/06/09 06:24:29;;;;;;;44.50;7.17;;;;;;;23.32;59.18;99354.31;7312593;19;129130;-39
2023/06/09 06:26:54;;;;;;;40.90;6.40;;;;;;;23.34;59.61;99358.44;7314004;19;128921;-38
2023/06/09 06:29:20;;;;;;;45.83;6.03;;;;;;;23.22;59.25;99341.31;7312787;19;129426;-39
2023/06/09 06:31:48;;;;;;;46.20;6.57;;;;;;;23.28;58.71;99353.81;7309863;19;129348;-38
2023/06/09 06:34:13;;;;;;;30.73;5.88;;;;;;;23.31;59.50;99357.91;7311645;19;129570;-38
2023/06/09 06:36:39;;;;;;;34.63;6.07;;;;;;;23.21;59.10;99344.88;7315056;19;129026;-39
2023/06/09 06:39:05;;;;;;;41.60;6.93;;;;;;;23.30;58.75;99357.09;7313070;19;129327;-38
2023/06/09 06:41:31;;;;;;;47.47;6.87;;;;;;;23.30;59.59;99362.34;7314954;19;130937;-38
2023/06/09 06:43:57;;;;;;;45.13;6.75;;;;;;;23.29;59.41;99360.69;7312499;19;128639;-39
2023/06/09 06:46:22;;;;;;;36.57;6.30;;;;;;;23.27;59.50;99354.78;7314711;19;129018;-36
2023/06/09 06:48:47;;;;;;;53.97;7.82;;;;;;;23.29;59.77;99359.91;7313449;19;129227;-38
2023/06/09 06:51:13;;;;;;;15.10;5.47;;;;;;;23.30;59.14;99359.72;7310990;19;129746;-38
2023/06/09 06:53:38;;;;;;;48.55;7.43;;;;;;;23.32;59.60;99359.56;7312393;19;129105;-38
2023/06/09 06:56:04;;;;;;;30.60;6.43;;;;;;;23.32;59.73;99354.31;7313748;19;129052;-38
2023/06/09 06:58:29;;;;;;;73.13;8.07;;;;;;;23.28;59.42;99347.75;7313335;19;129047;-39
2023/06/09 07:00:55;;;;;;;36.53;6.53;;;;;;;23.29;59.16;99357.28;7313770;19;129052;-38
2023/06/09 07:03:23;;;;;;;28.92;6.18;;;;;;;23.30;58.99;99359.72;7313088;19;130079;-39
2023/06/09 07:05:49;;;;;;;32.17;6.45;;;;;;;23.27;59.06;99357.41;7310085;19;129218;-38
2023/06/09 07:08:15;;;;;;;55.50;7.33;;;;;;;23.26;59.89;99353.09;7313327;19;129437;-38
2023/06/09 07:10:40;;;;;;;35.40;6.28;;;;;;;23.30;59.06;99364.16;7310801;19;129302;-39
2023/06/09 07:13:06;;;;;;;29.77;6.15;;;;;;;23.18;59.06;99343.41;7312193;19;129368;-39
2023/06/09 07:15:31;;;;;;;48.43;7.07;;;;;;;23.29;59.42;99365.94;7309242;19;128891;-39
2023/06/09 07:17:57;;;;;;;52.85;7.25;;;;;;;23.30;59.20;99366.78;7312232;19;129178;-38
2023/06/09 07:20:22;;;;;;;65.37;8.07;;;;;;;23.29;59.16;99376.44;7311172;19;129934;-38
2023/06/09 07:22:51;;;;;;;32.60;6.23;;;;;;;23.31;59.51;99369.25;7312965;19;129574;-37
2023/06/09 07:25:17;;;;;;;26.08;6.40;;;;;;;23.30;59.36;99370.22;7309236;19;130707;-38
2023/06/09 07:27:42;;;;;;;54.63;8.03;;;;;;;23.31;59.41;99368.41;7311555;19;129366;-39
2023/06/09 07:30:08;;;;;;;45.58;7.00;;;;;;;23.32;59.67;99370.88;7310747;19;129429;-38
2023/06/09 07:32:33;;;;;;;39.27;6.77;;;;;;;23.32;59.32;99363.00;7310945;19;128800;-37
2023/06/09 07:34:59;;;;;;;41.80;6.47;;;;;;;23.21;59.15;99353.59;7309488;19;128855;-39
2023/06/09 07:37:25;;;;;;;54.33;7.80;;;;;;;23.29;58.49;99371.19;7311548;19;130115;-38
2023/06/09 07:39:50;;;;;;;57.80;8.00;;;;;;;23.28;59.28;99368.72;7311259;19;129466;-38
2023/06/09 07:42:16;;;;;;;34.63;6.57;;;;;;;23.31;58.69;99379.72;7311192;19;128946;-38
2023/06/09 07:44:41;;;;;;;73.37;9.00;;;;;;;23.27;59.33;99378.38;7317482;19;129550;-38
2023/06/09 07:47:07;;;;;;;24.02;6.75;;;;;;;23.31;58.72;99369.25;7318512;19;129430;-39
2023/06/09 07:49:32;;;;;;;54.80;7.75;;;;;;;23.29;58.87;99376.44;7318157;19;129674;-37
2023/06/09 07:51:59;;;;;;;32.42;6.72;;;;;;;23.32;59.05;99376.13;7315673;19;129007;-38
2023/06/09 07:54:24;;;;;;;40.15;7.40;;;;;;;23.30;58.73;99369.41;7317370;19;128980;-37
2023/06/09 07:56:50;;;;;;;40.90;7.22;;;;;;;23.31;58.41;99374.47;7318114;19;130016;-38
2023/06/09 07:59:17;;;;;;;42.90;7.88;;;;;;;23.31;59.46;99368.41;7318294;19;130425;-39
2023/06/09 08:01:43;;;;;;;;;;;;;;;23.34;59.11;99368.91;7316787;19;129249;-39
2023/06/09 08:04:08;;;;;;;49.80;7.75;;;;;;;23.30;58.44;99358.91;7318386;19;129271;-37
2023/06/09 08:06:34;;;;;;;37.42;7.78;;;;;;;23.31;59.17;99364.00;7317880;19;129802;-39
2023/06/09 08:08:59;;;;;;;48.85;8.70;;;;;;;23.28;59.24;99359.06;7317909;19;131011;-38
2023/06/09 08:11:26;;;;;;;41.97;7.93;;;;;;;23.22;58.98;99344.72;7315293;19;129136;-38
2023/06/09 08:13:51;;;;;;;56.72;8.15;;;;;;;23.30;58.83;99369.41;7317260;19;129492;-38
2023/06/09 08:16:17;;;;;;;35.57;7.37;;;;;;;23.29;59.38;99365.94;7317526;19;129769;-39
2023/06/09 08:18:42;;;;;;;40.67;8.20;;;;;;;23.27;58.37;99356.59;7317513;19;129717;-39
2023/06/09 08:21:07;;;;;;;39.25;7.72;;;;;;;23.27;58.74;99361.84;7317187;19;129250;-38
2023/06/09 08:23:33;;;;;;;57.27;8.57;;;;;;;23.17;58.60;99340.94;7317428;19;128848;-39
2023/06/09 08:25:58;;;;;;;23.25;7.10;;;;;;;23.25;58.87;99354.91;7316399;19;129084;-39
2023/06/09 08:28:23;;;;;;;31.83;7.40;;;;;;;23.28;58.77;99353.81;7317320;19;129137;-38
2023/06/09 08:30:49;;;;;;;45.50;7.80;;;;;;;23.29;58.93;99352.03;7315302;19;129009;-39
2023/06/09 08:33:15;;;;;;;49.92;8.18;;;;;;;23.22;58.76;99336.06;7317202;19;128731;-39
2023/06/09 08:35:40;;;;;;;38.70;8.03;;;;;;;23.27;58.97;99349.53;7315843;19;130219;-38
2023/06/09 08:38:06;;;;;;;24.67;7.07;;;;;;;23.30;59.07;99351.03;7316700;19;129151;-38
2023/06/09 08:40:32;;;;;;;77.63;9.83;;;;;;;23.24;59.08;99342.78;7316377;19;129099;-38
2023/06/09 08:42:58;;;;;;;40.87;7.80;;;;;;;23.30;58.91;99351.88;7316860;19;129135;-39
2023/06/09 08:45:24;;;;;;;56.30;8.25;;;;;;;23.27;58.78;99359.22;7315482;19;131205;-38
2023/06/09 08:47:53;;;;;;;41.77;7.47;;;;;;;23.29;59.05;99355.44;7317172;19;130325;-38
2023/06/09 08:50:20;;;;;;;64.05;8.35;;;;;;;23.31;58.60;99358.75;7315193;19;128929;-38
2023/06/09 08:52:47;;;;;;;44.20;7.45;;;;;;;23.29;58.80;99355.44;7316945;19;128908;-39
2023/06/09 08:55:13;;;;;;;38.80;7.00;;;;;;;23.29;58.58;99352.81;7314462;19;129076;-38
2023/06/09 08:57:40;;;;;;;32.75;6.78;;;;;;;23.29;58.87;99344.97;7316359;19;129865;-38
2023/06/09 09:00:11;;;;;;;45.67;8.13;;;;;;;23.30;59.44;99346.63;7315602;19;128975;-38
2023/06/09 09:02:37;;;;;;;70.70;8.38;;;;;;;23.26;58.88;99337.38;7315514;19;129354;-38
2023/06/09 09:05:02;;;;;;;44.67;7.90;;;;;;;23.31;58.67;99340.38;7315287;19;129685;-39
2023/06/09 09:07:28;;;;;;;35.70;6.43;;;;;;;23.32;58.68;99339.38;7316058;19;129103;-38
2023/06/09 09:09:54;;;;;;;45.13;7.63;;;;;;;23.31;58.72;99343.00;7316268;19;128936;-38
2023/06/09 09:12:20;;;;;;;31.48;7.00;;;;;;;23.32;58.69;99335.97;7315394;19;128953;-39
2023/06/09 09:14:47;;;;;;;32.20;7.85;;;;;;;23.29;58.88;99334.47;7315338;19;130358;-38
2023/06/09 09:17:14;;;;;;;35.85;6.70;;;;;;;23.27;58.39;99333.78;7316212;19;130731;-39
2023/06/09 09:19:45;;;;;;;54.03;7.88;;;;;;;23.29;58.88;99334.47;7316508;19;129316;-38
2023/06/09 09:22:11;;;;;;;56.78;7.90;;;;;;;23.29;59.04;99331.84;7315263;19;129237;-38
2023/06/09 09:24:41;;;;;;;33.10;6.63;;;;;;;23.18;59.50;99311.94;7314818;19;129173;-38
2023/06/09 09:27:32;;;;;;;37.05;7.18;;;;;;;23.30;59.56;99330.03;7314119;19;129846;-39
2023/06/09 09:29:57;;;;;;;43.95;7.50;;;;;;;23.26;59.13;99329.50;7315201;19;129600;-38
2023/06/09 09:32:26;;;;;;;34.63;6.60;;;;;;;23.29;59.08;99325.78;7315325;19;128802;-38
2023/06/09 09:34:52;;;;;;;72.60;8.45;;;;;;;23.29;58.80;99329.22;7313818;19;129415;-37
2023/06/09 09:37:18;;;;;;;34.30;6.37;;;;;;;23.27;59.00;99320.69;7316468;19;131059;-39
2023/06/09 09:39:53;;;;;;;39.63;6.63;;;;;;;23.29;59.12;99318.72;7315125;19;129306;-39
2023/06/09 09:42:20;;;;;;;39.22;6.93;;;;;;;23.26;59.03;99319.00;7314786;19;129254;-37
2023/06/09 09:44:47;;;;;;;48.22;7.10;;;;;;;23.27;59.25;99320.69;7313562;19;129132;-38
2023/06/09 09:47:15;;;;;;;28.98;5.85;;;;;;;23.28;59.09;99316.25;7314074;19;129179;-38
2023/06/09 09:50:00;;;;;;;35.17;6.13;;;;;;;23.19;59.92;99310.13;7315835;19;129473;-40
2023/06/09 09:52:27;;;;;;;65.57;7.65;;;;;;;23.29;59.02;99331.84;7314550;19;129276;-41
2023/06/09 09:54:59;;;;;;;15.93;5.75;;;;;;;23.28;58.93;99326.75;7313144;19;129631;-40
2023/06/09 09:57:29;;;;;;;67.85;7.68;;;;;;;23.32;59.66;99323.66;7314364;19;130038;-39
2023/06/09 09:59:55;;;;;;;58.05;7.30;;;;;;;23.29;59.26;99318.72;7314189;19;129307;-39
2023/06/09 10:02:24;;;;;;;30.37;5.30;;;;;;;23.28;59.12;99316.25;7314978;19;129065;-39
2023/06/09 10:04:50;;;;;;;33.15;6.30;;;;;;;23.27;59.34;99314.63;7311937;19;129543;-41
2023/06/09 10:07:21;;;;;;;29.20;5.50;;;;;;;23.28;59.78;99317.09;7314276;19;129270;-42
2023/06/09 10:09:50;;;;;;;66.03;7.40;;;;;;;23.29;59.36;99318.72;7312830;19;128948;-42
2023/06/09 10:12:17;;;;;;;34.67;5.70;;;;;;;23.31;59.83;99315.94;7311485;19;129321;-42
2023/06/09 10:14:43;;;;;;;54.50;6.85;;;;;;;23.27;58.79;99312.00;7312416;19;129758;-42
2023/06/09 10:17:10;;;;;;;29.00;5.28;;;;;;;23.29;59.66;99315.31;7314728;19;129071;-41
2023/06/09 10:19:35;;;;;;;49.47;6.43;;;;;;;23.30;59.40;99304.66;7312799;19;128927;-41
2023/06/09 10:22:01;;;;;;;33.90;5.63;;;;;;;23.30;59.15;99296.78;7313359;19;128879;-41
2023/06/09 10:24:27;;;;;;;31.35;5.63;;;;;;;23.28;59.30;99301.34;7313242;19;129319;-40
2023/06/09 10:26:53;;;;;;;28.40;5.10;;;;;;;23.28;59.83;99295.28;7312384;19;129563;-39
2023/06/09 10:29:19;;;;;;;29.80;5.13;;;;;;;23.30;59.51;99298.56;7313142;19;128964;-39
2023/06/09 10:31:46;;;;;;;48.63;6.40;;;;;;;23.28;60.02;99293.47;7310895;19;129931;-38
2023/06/09 10:34:15;;;;;;;29.17;5.07;;;;;;;23.28;59.22;99285.63;7313300;19;129431;-41
2023/06/09 10:36:41;;;;;;;18.63;5.15;;;;;;;23.30;58.58;99293.31;7312422;19;129664;-41
2023/06/09 10:39:19;;;;;;;55.27;6.83;;;;;;;23.33;59.29;99291.22;7313239;19;129696;-41
2023/06/09 10:41:59;;;;;;;52.17;6.28;;;;;;;23.31;59.88;99290.53;7311593;19;128955;-38
2023/06/09 10:44:44;;;;;;;39.85;5.30;;;;;;;23.30;59.44;99280.22;7313516;19;129631;-41
2023/06/09 10:47:10;;;;;;;45.25;6.20;;;;;;;23.33;59.21;99278.09;7312976;19;129711;-40
2023/06/09 10:49:38;;;;;;;31.67;5.07;;;;;;;23.30;59.39;99281.03;7312906;19;129077;-39
2023/06/09 10:52:23;;;;;;;51.92;6.18;;;;;;;23.32;59.45;99281.69;7309564;19;129193;-40
2023/06/09 10:55:12;;;;;;;37.33;4.93;;;;;;;23.33;59.62;99278.09;7312448;19;129452;-42
2023/06/09 10:57:38;;;;;;;40.47;5.28;;;;;;;23.21;59.49;99266.19;7312732;19;129446;-42
2023/06/09 11:00:11;;;;;;;;;;;;;;;23.39;59.36;99276.66;7312377;19;129191;-41
2023/06/09 11:02:38;;;;;;;46.10;5.35;;;;;;;23.32;59.14;99281.69;7313083;19;129313;-42
2023/06/09 11:05:04;;;;;;;38.05;5.00;;;;;;;23.32;59.63;99279.06;7311230;19;129371;-41
2023/06/09 11:07:31;;;;;;;28.50;4.43;;;;;;;23.32;59.17;99281.69;7313114;19;130494;-42
2023/06/09 11:09:56;;;;;;;48.30;5.35;;;;;;;23.29;59.11;99271.50;7311490;19;128994;-40
2023/06/09 11:12:27;;;;;;;56.00;5.90;;;;;;;23.21;60.01;99253.09;7310299;19;129035;-39
2023/06/09 11:14:57;;;;;;;19.92;3.80;;;;;;;23.34;59.78;99269.22;7311492;19;130169;-40
2023/06/09 11:17:33;;;;;;;44.22;5.53;;;;;;;23.32;59.10;99265.13;7309257;19;129617;-41
2023/06/09 11:20:08;;;;;;;31.85;4.32;;;;;;;23.32;59.84;99259.91;7310229;19;128936;-40